Pilot Mound, Canada
Current Conditions -  °F | °C
As of 3:15 AM on Wednesday 22 Oct 2014 (Local Time) from KD55 Reporting Station
Clear Clear  
Wind Chill: 55°   Ceiling: Unl
Heat Index: 55°   Visibility: 10mi
Dew Point: 41°   Wind: 21mph
Humidity: 58%   Direction: 160°SSE
Pressure: 29.72"   Gusts: 28mph
Location:  49.2°N, 98.9°W
Report Text: KD55 220815Z AUTO 16018G24KT 10SM CLR 13/05 A2972 RMK AO2
Loading
Personal Weather Stations






























Interactive Weather Map
Tropical Storm Tracking
New forecast layout! Learn more

10-Day Weather Forecast

Advertisements
Track Severe Weather on mobile